sensor_id;sensor_type;location;lat;lon;timestamp;P1;durP1;ratioP1;P2;durP2;ratioP2
75358;SDS011;64046;51.978;5.934;2024-03-07T00:00:28;37.83;;;20.33;;
75358;SDS011;64046;51.978;5.934;2024-03-07T00:02:57;37.33;;;22.00;;
75358;SDS011;64046;51.978;5.934;2024-03-07T00:05:29;42.25;;;24.55;;
75358;SDS011;64046;51.978;5.934;2024-03-07T00:07:59;41.78;;;22.95;;
75358;SDS011;64046;51.978;5.934;2024-03-07T00:10:28;39.92;;;22.25;;
75358;SDS011;64046;51.978;5.934;2024-03-07T00:12:58;40.28;;;22.77;;
75358;SDS011;64046;51.978;5.934;2024-03-07T00:15:29;36.83;;;21.80;;
75358;SDS011;64046;51.978;5.934;2024-03-07T00:17:58;37.53;;;22.15;;
75358;SDS011;64046;51.978;5.934;2024-03-07T00:20:30;43.75;;;24.73;;
75358;SDS011;64046;51.978;5.934;2024-03-07T00:23:00;43.47;;;24.10;;
75358;SDS011;64046;51.978;5.934;2024-03-07T00:25:29;46.55;;;25.00;;
75358;SDS011;64046;51.978;5.934;2024-03-07T00:27:58;43.40;;;22.65;;
75358;SDS011;64046;51.978;5.934;2024-03-07T00:30:29;43.67;;;24.02;;
75358;SDS011;64046;51.978;5.934;2024-03-07T00:33:00;39.03;;;23.17;;
75358;SDS011;64046;51.978;5.934;2024-03-07T00:35:33;37.15;;;21.65;;
75358;SDS011;64046;51.978;5.934;2024-03-07T00:38:02;38.67;;;22.73;;
75358;SDS011;64046;51.978;5.934;2024-03-07T00:40:32;42.47;;;24.40;;
75358;SDS011;64046;51.978;5.934;2024-03-07T00:43:02;44.95;;;25.05;;
75358;SDS011;64046;51.978;5.934;2024-03-07T00:45:32;41.38;;;23.48;;
75358;SDS011;64046;51.978;5.934;2024-03-07T00:48:02;47.03;;;23.58;;
75358;SDS011;64046;51.978;5.934;2024-03-07T00:50:34;41.88;;;24.15;;
75358;SDS011;64046;51.978;5.934;2024-03-07T00:53:04;41.13;;;22.83;;
75358;SDS011;64046;51.978;5.934;2024-03-07T00:55:33;38.55;;;22.27;;
75358;SDS011;64046;51.978;5.934;2024-03-07T00:58:02;44.20;;;26.33;;
75358;SDS011;64046;51.978;5.934;2024-03-07T01:00:32;42.25;;;23.95;;
75358;SDS011;64046;51.978;5.934;2024-03-07T01:03:02;47.08;;;25.48;;
75358;SDS011;64046;51.978;5.934;2024-03-07T01:05:34;49.90;;;27.08;;
75358;SDS011;64046;51.978;5.934;2024-03-07T01:08:04;42.17;;;23.08;;
75358;SDS011;64046;51.978;5.934;2024-03-07T01:10:34;40.85;;;23.25;;
75358;SDS011;64046;51.978;5.934;2024-03-07T01:13:04;42.10;;;24.63;;
75358;SDS011;64046;51.978;5.934;2024-03-07T01:15:34;44.35;;;24.13;;
75358;SDS011;64046;51.978;5.934;2024-03-07T01:18:04;40.20;;;21.85;;
75358;SDS011;64046;51.978;5.934;2024-03-07T01:20:36;50.03;;;26.00;;
75358;SDS011;64046;51.978;5.934;2024-03-07T01:23:06;47.75;;;27.13;;
75358;SDS011;64046;51.978;5.934;2024-03-07T01:25:36;54.72;;;29.00;;
75358;SDS011;64046;51.978;5.934;2024-03-07T01:28:06;45.10;;;23.77;;
75358;SDS011;64046;51.978;5.934;2024-03-07T01:30:38;48.03;;;24.85;;
75358;SDS011;64046;51.978;5.934;2024-03-07T01:33:07;42.65;;;25.50;;
75358;SDS011;64046;51.978;5.934;2024-03-07T01:35:39;44.85;;;22.90;;
75358;SDS011;64046;51.978;5.934;2024-03-07T01:38:09;44.80;;;24.17;;
75358;SDS011;64046;51.978;5.934;2024-03-07T01:40:39;45.97;;;25.95;;
75358;SDS011;64046;51.978;5.934;2024-03-07T01:43:08;42.70;;;23.92;;
75358;SDS011;64046;51.978;5.934;2024-03-07T01:45:38;45.75;;;25.67;;
75358;SDS011;64046;51.978;5.934;2024-03-07T01:48:08;42.92;;;25.70;;
75358;SDS011;64046;51.978;5.934;2024-03-07T01:50:41;43.22;;;24.35;;
75358;SDS011;64046;51.978;5.934;2024-03-07T01:53:11;45.05;;;23.40;;
75358;SDS011;64046;51.978;5.934;2024-03-07T01:55:42;45.33;;;23.45;;
75358;SDS011;64046;51.978;5.934;2024-03-07T01:58:12;43.95;;;23.65;;
75358;SDS011;64046;51.978;5.934;2024-03-07T02:00:46;46.75;;;25.70;;
75358;SDS011;64046;51.978;5.934;2024-03-07T02:03:15;49.88;;;26.65;;
75358;SDS011;64046;51.978;5.934;2024-03-07T02:05:48;45.03;;;24.73;;
75358;SDS011;64046;51.978;5.934;2024-03-07T02:08:17;43.67;;;23.35;;
75358;SDS011;64046;51.978;5.934;2024-03-07T02:10:47;45.60;;;24.00;;
75358;SDS011;64046;51.978;5.934;2024-03-07T02:13:17;56.20;;;28.70;;
75358;SDS011;64046;51.978;5.934;2024-03-07T02:15:47;49.33;;;27.27;;
75358;SDS011;64046;51.978;5.934;2024-03-07T02:18:16;43.95;;;24.95;;
75358;SDS011;64046;51.978;5.934;2024-03-07T02:20:48;46.03;;;25.77;;
75358;SDS011;64046;51.978;5.934;2024-03-07T02:23:17;47.40;;;24.70;;
75358;SDS011;64046;51.978;5.934;2024-03-07T02:25:47;46.72;;;25.10;;
75358;SDS011;64046;51.978;5.934;2024-03-07T02:28:16;52.03;;;26.15;;
75358;SDS011;64046;51.978;5.934;2024-03-07T02:30:45;55.05;;;29.08;;
75358;SDS011;64046;51.978;5.934;2024-03-07T02:33:14;51.30;;;27.70;;
75358;SDS011;64046;51.978;5.934;2024-03-07T02:35:44;59.20;;;27.33;;
75358;SDS011;64046;51.978;5.934;2024-03-07T02:38:17;46.50;;;25.02;;
75358;SDS011;64046;51.978;5.934;2024-03-07T02:40:47;44.75;;;25.52;;
75358;SDS011;64046;51.978;5.934;2024-03-07T02:43:16;45.33;;;23.40;;
75358;SDS011;64046;51.978;5.934;2024-03-07T02:45:45;40.60;;;22.85;;
75358;SDS011;64046;51.978;5.934;2024-03-07T02:48:15;41.38;;;23.60;;
75358;SDS011;64046;51.978;5.934;2024-03-07T02:50:45;46.25;;;25.80;;
75358;SDS011;64046;51.978;5.934;2024-03-07T02:53:17;51.00;;;27.10;;
75358;SDS011;64046;51.978;5.934;2024-03-07T02:55:46;44.95;;;24.42;;
75358;SDS011;64046;51.978;5.934;2024-03-07T02:58:15;41.05;;;24.67;;
75358;SDS011;64046;51.978;5.934;2024-03-07T03:00:45;47.85;;;26.17;;
75358;SDS011;64046;51.978;5.934;2024-03-07T03:03:15;45.33;;;26.00;;
75358;SDS011;64046;51.978;5.934;2024-03-07T03:05:44;47.88;;;23.73;;
75358;SDS011;64046;51.978;5.934;2024-03-07T03:08:13;49.65;;;26.55;;
75358;SDS011;64046;51.978;5.934;2024-03-07T03:10:46;42.22;;;23.33;;
75358;SDS011;64046;51.978;5.934;2024-03-07T03:13:17;40.15;;;24.13;;
75358;SDS011;64046;51.978;5.934;2024-03-07T03:15:46;58.90;;;29.88;;
75358;SDS011;64046;51.978;5.934;2024-03-07T03:18:16;52.17;;;28.13;;
75358;SDS011;64046;51.978;5.934;2024-03-07T03:20:46;46.30;;;25.95;;
75358;SDS011;64046;51.978;5.934;2024-03-07T03:23:15;56.17;;;30.17;;
75358;SDS011;64046;51.978;5.934;2024-03-07T03:25:49;54.78;;;29.13;;
75358;SDS011;64046;51.978;5.934;2024-03-07T03:28:19;50.92;;;26.63;;
75358;SDS011;64046;51.978;5.934;2024-03-07T03:30:49;43.40;;;25.23;;
75358;SDS011;64046;51.978;5.934;2024-03-07T03:33:19;50.47;;;25.20;;
75358;SDS011;64046;51.978;5.934;2024-03-07T03:35:49;43.65;;;23.00;;
75358;SDS011;64046;51.978;5.934;2024-03-07T03:38:18;52.75;;;27.38;;
75358;SDS011;64046;51.978;5.934;2024-03-07T03:40:50;49.67;;;23.55;;
75358;SDS011;64046;51.978;5.934;2024-03-07T03:43:21;41.05;;;23.77;;
75358;SDS011;64046;51.978;5.934;2024-03-07T03:45:50;45.97;;;22.80;;
75358;SDS011;64046;51.978;5.934;2024-03-07T03:48:20;42.55;;;23.35;;
75358;SDS011;64046;51.978;5.934;2024-03-07T03:50:49;44.10;;;24.60;;
75358;SDS011;64046;51.978;5.934;2024-03-07T03:53:20;46.63;;;24.10;;
75358;SDS011;64046;51.978;5.934;2024-03-07T03:55:51;49.05;;;26.92;;
75358;SDS011;64046;51.978;5.934;2024-03-07T03:58:22;44.15;;;25.70;;
75358;SDS011;64046;51.978;5.934;2024-03-07T04:00:52;46.33;;;25.17;;
75358;SDS011;64046;51.978;5.934;2024-03-07T04:03:21;43.97;;;24.40;;
75358;SDS011;64046;51.978;5.934;2024-03-07T04:05:50;51.55;;;25.08;;
75358;SDS011;64046;51.978;5.934;2024-03-07T04:08:21;44.10;;;24.42;;
75358;SDS011;64046;51.978;5.934;2024-03-07T04:10:52;38.95;;;22.48;;
75358;SDS011;64046;51.978;5.934;2024-03-07T04:13:22;39.50;;;22.48;;
75358;SDS011;64046;51.978;5.934;2024-03-07T04:15:51;42.85;;;23.25;;
75358;SDS011;64046;51.978;5.934;2024-03-07T04:18:21;44.08;;;23.75;;
75358;SDS011;64046;51.978;5.934;2024-03-07T04:20:52;42.20;;;24.00;;
75358;SDS011;64046;51.978;5.934;2024-03-07T04:23:21;43.65;;;23.40;;
75358;SDS011;64046;51.978;5.934;2024-03-07T04:25:54;45.88;;;25.08;;
75358;SDS011;64046;51.978;5.934;2024-03-07T04:28:24;42.63;;;23.83;;
75358;SDS011;64046;51.978;5.934;2024-03-07T04:30:53;44.28;;;24.50;;
75358;SDS011;64046;51.978;5.934;2024-03-07T04:33:23;52.38;;;24.33;;
75358;SDS011;64046;51.978;5.934;2024-03-07T04:35:52;45.13;;;24.38;;
75358;SDS011;64046;51.978;5.934;2024-03-07T04:38:22;50.05;;;24.13;;
75358;SDS011;64046;51.978;5.934;2024-03-07T04:40:56;50.53;;;25.35;;
75358;SDS011;64046;51.978;5.934;2024-03-07T04:43:26;49.67;;;27.40;;
75358;SDS011;64046;51.978;5.934;2024-03-07T04:45:55;45.85;;;23.90;;
75358;SDS011;64046;51.978;5.934;2024-03-07T04:48:24;44.58;;;24.67;;
75358;SDS011;64046;51.978;5.934;2024-03-07T04:50:54;43.35;;;22.20;;
75358;SDS011;64046;51.978;5.934;2024-03-07T04:53:24;42.72;;;23.40;;
75358;SDS011;64046;51.978;5.934;2024-03-07T04:55:53;41.85;;;23.58;;
75358;SDS011;64046;51.978;5.934;2024-03-07T04:58:25;47.08;;;27.00;;
75358;SDS011;64046;51.978;5.934;2024-03-07T05:00:54;52.33;;;28.65;;
75358;SDS011;64046;51.978;5.934;2024-03-07T05:03:24;52.53;;;28.33;;
75358;SDS011;64046;51.978;5.934;2024-03-07T05:05:53;49.40;;;25.63;;
75358;SDS011;64046;51.978;5.934;2024-03-07T05:08:23;42.60;;;22.98;;
75358;SDS011;64046;51.978;5.934;2024-03-07T05:10:52;48.28;;;27.48;;
75358;SDS011;64046;51.978;5.934;2024-03-07T05:13:21;42.25;;;24.40;;
75358;SDS011;64046;51.978;5.934;2024-03-07T05:15:53;47.83;;;25.00;;
75358;SDS011;64046;51.978;5.934;2024-03-07T05:18:23;42.70;;;23.95;;
75358;SDS011;64046;51.978;5.934;2024-03-07T05:20:52;43.60;;;23.67;;
75358;SDS011;64046;51.978;5.934;2024-03-07T05:23:22;50.50;;;28.50;;
75358;SDS011;64046;51.978;5.934;2024-03-07T05:25:52;45.22;;;24.98;;
75358;SDS011;64046;51.978;5.934;2024-03-07T05:28:21;41.30;;;21.90;;
75358;SDS011;64046;51.978;5.934;2024-03-07T05:30:53;44.10;;;25.95;;
75358;SDS011;64046;51.978;5.934;2024-03-07T05:33:22;39.70;;;23.10;;
75358;SDS011;64046;51.978;5.934;2024-03-07T05:35:51;38.65;;;21.60;;
75358;SDS011;64046;51.978;5.934;2024-03-07T05:38:28;47.90;;;26.15;;
75358;SDS011;64046;51.978;5.934;2024-03-07T05:40:57;42.10;;;23.23;;
75358;SDS011;64046;51.978;5.934;2024-03-07T05:43:27;45.83;;;24.85;;
75358;SDS011;64046;51.978;5.934;2024-03-07T05:45:59;44.90;;;21.05;;
75358;SDS011;64046;51.978;5.934;2024-03-07T05:48:29;40.38;;;21.55;;
75358;SDS011;64046;51.978;5.934;2024-03-07T05:50:59;37.65;;;21.70;;
75358;SDS011;64046;51.978;5.934;2024-03-07T05:53:28;42.90;;;25.23;;
75358;SDS011;64046;51.978;5.934;2024-03-07T05:55:57;35.80;;;20.33;;
75358;SDS011;64046;51.978;5.934;2024-03-07T05:58:27;39.25;;;22.65;;
75358;SDS011;64046;51.978;5.934;2024-03-07T06:00:59;38.10;;;21.92;;
75358;SDS011;64046;51.978;5.934;2024-03-07T06:03:28;42.72;;;22.20;;
75358;SDS011;64046;51.978;5.934;2024-03-07T06:05:58;39.05;;;22.25;;
75358;SDS011;64046;51.978;5.934;2024-03-07T06:08:27;38.10;;;22.08;;
75358;SDS011;64046;51.978;5.934;2024-03-07T06:10:56;39.55;;;21.10;;
75358;SDS011;64046;51.978;5.934;2024-03-07T06:13:27;35.67;;;20.50;;
75358;SDS011;64046;51.978;5.934;2024-03-07T06:15:59;33.72;;;20.83;;
75358;SDS011;64046;51.978;5.934;2024-03-07T06:18:31;39.00;;;22.92;;
75358;SDS011;64046;51.978;5.934;2024-03-07T06:21:00;38.03;;;22.08;;
75358;SDS011;64046;51.978;5.934;2024-03-07T06:23:30;43.85;;;21.73;;
75358;SDS011;64046;51.978;5.934;2024-03-07T06:25:59;37.72;;;20.73;;
75358;SDS011;64046;51.978;5.934;2024-03-07T06:28:38;37.58;;;20.77;;
75358;SDS011;64046;51.978;5.934;2024-03-07T06:31:10;34.53;;;20.98;;
75358;SDS011;64046;51.978;5.934;2024-03-07T06:33:39;38.17;;;20.05;;
75358;SDS011;64046;51.978;5.934;2024-03-07T06:36:09;32.65;;;19.42;;
75358;SDS011;64046;51.978;5.934;2024-03-07T06:38:38;35.25;;;21.02;;
75358;SDS011;64046;51.978;5.934;2024-03-07T06:41:07;35.03;;;19.90;;
75358;SDS011;64046;51.978;5.934;2024-03-07T06:43:36;26.83;;;17.63;;
75358;SDS011;64046;51.978;5.934;2024-03-07T06:46:07;31.00;;;18.55;;
75358;SDS011;64046;51.978;5.934;2024-03-07T06:48:39;33.72;;;19.70;;
75358;SDS011;64046;51.978;5.934;2024-03-07T06:51:09;41.10;;;23.80;;
75358;SDS011;64046;51.978;5.934;2024-03-07T06:53:38;36.95;;;20.60;;
75358;SDS011;64046;51.978;5.934;2024-03-07T06:56:08;29.95;;;18.95;;
75358;SDS011;64046;51.978;5.934;2024-03-07T06:58:38;33.63;;;19.48;;
75358;SDS011;64046;51.978;5.934;2024-03-07T07:01:12;33.72;;;19.55;;
75358;SDS011;64046;51.978;5.934;2024-03-07T07:03:42;36.65;;;19.88;;
75358;SDS011;64046;51.978;5.934;2024-03-07T07:06:13;31.45;;;18.00;;
75358;SDS011;64046;51.978;5.934;2024-03-07T07:08:43;31.50;;;18.10;;
75358;SDS011;64046;51.978;5.934;2024-03-07T07:11:13;33.05;;;20.17;;
75358;SDS011;64046;51.978;5.934;2024-03-07T07:13:43;40.47;;;21.55;;
75358;SDS011;64046;51.978;5.934;2024-03-07T07:16:15;37.40;;;20.67;;
75358;SDS011;64046;51.978;5.934;2024-03-07T07:18:45;30.52;;;18.45;;
75358;SDS011;64046;51.978;5.934;2024-03-07T07:21:14;32.83;;;19.85;;
75358;SDS011;64046;51.978;5.934;2024-03-07T07:23:44;28.35;;;17.63;;
75358;SDS011;64046;51.978;5.934;2024-03-07T07:26:13;30.88;;;17.20;;
75358;SDS011;64046;51.978;5.934;2024-03-07T07:28:44;37.65;;;19.92;;
75358;SDS011;64046;51.978;5.934;2024-03-07T07:31:16;29.70;;;17.45;;
75358;SDS011;64046;51.978;5.934;2024-03-07T07:33:45;30.73;;;18.52;;
75358;SDS011;64046;51.978;5.934;2024-03-07T07:36:15;31.75;;;18.88;;
75358;SDS011;64046;51.978;5.934;2024-03-07T07:38:44;36.42;;;20.52;;
75358;SDS011;64046;51.978;5.934;2024-03-07T07:41:14;27.98;;;16.90;;
75358;SDS011;64046;51.978;5.934;2024-03-07T07:43:43;28.45;;;16.98;;
75358;SDS011;64046;51.978;5.934;2024-03-07T07:46:16;31.08;;;17.73;;
75358;SDS011;64046;51.978;5.934;2024-03-07T07:48:46;33.15;;;18.88;;
75358;SDS011;64046;51.978;5.934;2024-03-07T07:51:15;27.20;;;16.52;;
75358;SDS011;64046;51.978;5.934;2024-03-07T07:53:46;24.33;;;15.80;;
75358;SDS011;64046;51.978;5.934;2024-03-07T07:56:15;31.23;;;17.63;;
75358;SDS011;64046;51.978;5.934;2024-03-07T07:58:45;27.95;;;17.15;;
75358;SDS011;64046;51.978;5.934;2024-03-07T08:01:17;30.50;;;18.13;;
75358;SDS011;64046;51.978;5.934;2024-03-07T08:03:46;26.98;;;16.98;;
75358;SDS011;64046;51.978;5.934;2024-03-07T08:06:16;28.83;;;16.98;;
75358;SDS011;64046;51.978;5.934;2024-03-07T08:08:46;26.80;;;16.65;;
75358;SDS011;64046;51.978;5.934;2024-03-07T08:11:16;25.70;;;16.05;;
75358;SDS011;64046;51.978;5.934;2024-03-07T08:13:45;28.40;;;17.23;;
75358;SDS011;64046;51.978;5.934;2024-03-07T08:16:19;25.27;;;15.32;;
75358;SDS011;64046;51.978;5.934;2024-03-07T08:18:48;26.33;;;15.90;;
75358;SDS011;64046;51.978;5.934;2024-03-07T08:21:18;29.80;;;17.42;;
75358;SDS011;64046;51.978;5.934;2024-03-07T08:23:49;21.95;;;13.93;;
75358;SDS011;64046;51.978;5.934;2024-03-07T08:26:20;26.10;;;16.10;;
75358;SDS011;64046;51.978;5.934;2024-03-07T08:28:50;23.30;;;14.85;;
75358;SDS011;64046;51.978;5.934;2024-03-07T08:31:21;24.15;;;15.30;;
75358;SDS011;64046;51.978;5.934;2024-03-07T08:33:52;24.45;;;14.88;;
75358;SDS011;64046;51.978;5.934;2024-03-07T08:36:21;34.90;;;17.95;;
75358;SDS011;64046;51.978;5.934;2024-03-07T08:38:51;23.50;;;15.23;;
75358;SDS011;64046;51.978;5.934;2024-03-07T08:41:20;23.48;;;15.50;;
75358;SDS011;64046;51.978;5.934;2024-03-07T08:43:50;24.35;;;14.60;;
75358;SDS011;64046;51.978;5.934;2024-03-07T08:46:21;26.33;;;15.18;;
75358;SDS011;64046;51.978;5.934;2024-03-07T08:48:52;21.15;;;13.32;;
75358;SDS011;64046;51.978;5.934;2024-03-07T08:51:21;21.65;;;14.40;;
75358;SDS011;64046;51.978;5.934;2024-03-07T08:53:53;20.92;;;13.02;;
75358;SDS011;64046;51.978;5.934;2024-03-07T08:56:22;22.92;;;14.45;;
75358;SDS011;64046;51.978;5.934;2024-03-07T08:58:51;21.05;;;12.57;;
75358;SDS011;64046;51.978;5.934;2024-03-07T09:01:23;21.52;;;13.52;;
75358;SDS011;64046;51.978;5.934;2024-03-07T09:03:52;23.70;;;15.13;;
75358;SDS011;64046;51.978;5.934;2024-03-07T09:06:24;22.38;;;14.68;;
75358;SDS011;64046;51.978;5.934;2024-03-07T09:08:53;25.15;;;15.00;;
75358;SDS011;64046;51.978;5.934;2024-03-07T09:11:22;24.23;;;14.68;;
75358;SDS011;64046;51.978;5.934;2024-03-07T09:13:52;19.65;;;13.50;;
75358;SDS011;64046;51.978;5.934;2024-03-07T09:16:23;26.73;;;14.43;;
75358;SDS011;64046;51.978;5.934;2024-03-07T09:18:53;23.50;;;14.55;;
75358;SDS011;64046;51.978;5.934;2024-03-07T09:21:22;24.30;;;14.77;;
75358;SDS011;64046;51.978;5.934;2024-03-07T09:23:52;21.77;;;13.68;;
75358;SDS011;64046;51.978;5.934;2024-03-07T09:26:24;21.88;;;14.48;;
75358;SDS011;64046;51.978;5.934;2024-03-07T09:28:54;20.85;;;12.80;;
75358;SDS011;64046;51.978;5.934;2024-03-07T09:31:26;22.20;;;13.77;;
75358;SDS011;64046;51.978;5.934;2024-03-07T09:33:57;25.30;;;16.23;;
75358;SDS011;64046;51.978;5.934;2024-03-07T09:36:27;24.85;;;14.75;;
75358;SDS011;64046;51.978;5.934;2024-03-07T09:38:56;19.40;;;13.18;;
75358;SDS011;64046;51.978;5.934;2024-03-07T09:41:26;21.60;;;14.27;;
75358;SDS011;64046;51.978;5.934;2024-03-07T09:43:56;22.05;;;13.60;;
75358;SDS011;64046;51.978;5.934;2024-03-07T09:46:31;20.95;;;13.15;;
75358;SDS011;64046;51.978;5.934;2024-03-07T09:49:01;23.00;;;14.13;;
75358;SDS011;64046;51.978;5.934;2024-03-07T09:51:31;20.85;;;13.57;;
75358;SDS011;64046;51.978;5.934;2024-03-07T09:54:03;18.38;;;11.95;;
75358;SDS011;64046;51.978;5.934;2024-03-07T09:56:34;23.60;;;14.70;;
75358;SDS011;64046;51.978;5.934;2024-03-07T09:59:04;21.05;;;13.02;;
75358;SDS011;64046;51.978;5.934;2024-03-07T10:01:36;19.20;;;13.27;;
75358;SDS011;64046;51.978;5.934;2024-03-07T10:04:08;20.70;;;12.15;;
75358;SDS011;64046;51.978;5.934;2024-03-07T10:06:43;23.33;;;13.43;;
75358;SDS011;64046;51.978;5.934;2024-03-07T10:09:14;24.48;;;14.30;;
75358;SDS011;64046;51.978;5.934;2024-03-07T10:11:54;22.05;;;12.75;;
75358;SDS011;64046;51.978;5.934;2024-03-07T10:14:24;22.08;;;13.30;;
75358;SDS011;64046;51.978;5.934;2024-03-07T10:16:56;21.33;;;13.80;;
75358;SDS011;64046;51.978;5.934;2024-03-07T10:19:27;24.02;;;14.38;;
75358;SDS011;64046;51.978;5.934;2024-03-07T10:21:57;24.33;;;14.95;;
75358;SDS011;64046;51.978;5.934;2024-03-07T10:24:27;21.48;;;13.57;;
75358;SDS011;64046;51.978;5.934;2024-03-07T10:26:59;22.27;;;13.88;;
75358;SDS011;64046;51.978;5.934;2024-03-07T10:29:30;21.25;;;13.40;;
75358;SDS011;64046;51.978;5.934;2024-03-07T10:32:02;23.25;;;13.88;;
75358;SDS011;64046;51.978;5.934;2024-03-07T10:34:40;21.35;;;13.55;;
75358;SDS011;64046;51.978;5.934;2024-03-07T10:37:12;21.67;;;13.32;;
75358;SDS011;64046;51.978;5.934;2024-03-07T10:39:43;22.42;;;13.93;;
75358;SDS011;64046;51.978;5.934;2024-03-07T10:42:13;23.95;;;14.48;;
75358;SDS011;64046;51.978;5.934;2024-03-07T10:44:45;22.45;;;13.98;;
75358;SDS011;64046;51.978;5.934;2024-03-07T10:47:19;20.90;;;13.27;;
75358;SDS011;64046;51.978;5.934;2024-03-07T10:49:55;25.20;;;14.65;;
75358;SDS011;64046;51.978;5.934;2024-03-07T10:52:39;26.63;;;13.48;;
75358;SDS011;64046;51.978;5.934;2024-03-07T10:55:15;21.92;;;13.55;;
75358;SDS011;64046;51.978;5.934;2024-03-07T10:57:55;24.88;;;14.50;;
75358;SDS011;64046;51.978;5.934;2024-03-07T11:00:29;20.45;;;12.55;;
75358;SDS011;64046;51.978;5.934;2024-03-07T11:03:09;19.55;;;12.40;;
75358;SDS011;64046;51.978;5.934;2024-03-07T11:05:39;21.48;;;13.27;;
75358;SDS011;64046;51.978;5.934;2024-03-07T11:08:10;22.08;;;12.90;;
75358;SDS011;64046;51.978;5.934;2024-03-07T11:10:40;26.60;;;13.85;;
75358;SDS011;64046;51.978;5.934;2024-03-07T11:13:13;24.05;;;15.15;;
75358;SDS011;64046;51.978;5.934;2024-03-07T11:15:43;20.48;;;12.95;;
75358;SDS011;64046;51.978;5.934;2024-03-07T11:18:18;22.35;;;13.48;;
75358;SDS011;64046;51.978;5.934;2024-03-07T11:20:47;20.25;;;12.80;;
75358;SDS011;64046;51.978;5.934;2024-03-07T11:26:07;22.33;;;13.52;;
75358;SDS011;64046;51.978;5.934;2024-03-07T11:28:40;23.95;;;14.57;;
75358;SDS011;64046;51.978;5.934;2024-03-07T11:31:13;19.27;;;12.88;;
75358;SDS011;64046;51.978;5.934;2024-03-07T11:34:00;21.70;;;13.00;;
75358;SDS011;64046;51.978;5.934;2024-03-07T11:36:45;24.55;;;13.13;;
75358;SDS011;64046;51.978;5.934;2024-03-07T11:42:09;21.00;;;13.73;;
75358;SDS011;64046;51.978;5.934;2024-03-07T11:44:38;21.05;;;13.23;;
75358;SDS011;64046;51.978;5.934;2024-03-07T11:47:08;21.23;;;13.68;;
75358;SDS011;64046;51.978;5.934;2024-03-07T11:49:40;19.65;;;12.60;;
75358;SDS011;64046;51.978;5.934;2024-03-07T11:52:10;21.35;;;12.07;;
75358;SDS011;64046;51.978;5.934;2024-03-07T11:54:40;20.15;;;11.57;;
75358;SDS011;64046;51.978;5.934;2024-03-07T11:57:12;19.73;;;11.80;;
75358;SDS011;64046;51.978;5.934;2024-03-07T11:59:41;18.88;;;12.35;;
75358;SDS011;64046;51.978;5.934;2024-03-07T12:02:18;20.15;;;12.85;;
75358;SDS011;64046;51.978;5.934;2024-03-07T12:04:52;19.38;;;12.63;;
75358;SDS011;64046;51.978;5.934;2024-03-07T12:07:22;22.15;;;12.30;;
75358;SDS011;64046;51.978;5.934;2024-03-07T12:09:53;22.25;;;11.85;;
75358;SDS011;64046;51.978;5.934;2024-03-07T12:12:22;20.58;;;11.77;;
75358;SDS011;64046;51.978;5.934;2024-03-07T12:14:53;20.73;;;12.38;;
75358;SDS011;64046;51.978;5.934;2024-03-07T12:17:24;20.27;;;12.20;;
75358;SDS011;64046;51.978;5.934;2024-03-07T12:19:58;20.98;;;12.63;;
75358;SDS011;64046;51.978;5.934;2024-03-07T12:22:49;19.77;;;12.38;;
75358;SDS011;64046;51.978;5.934;2024-03-07T12:25:19;19.40;;;12.60;;
75358;SDS011;64046;51.978;5.934;2024-03-07T12:27:59;18.90;;;12.68;;
75358;SDS011;64046;51.978;5.934;2024-03-07T12:30:34;20.48;;;12.75;;
75358;SDS011;64046;51.978;5.934;2024-03-07T12:33:06;20.80;;;12.38;;
75358;SDS011;64046;51.978;5.934;2024-03-07T12:35:39;20.33;;;13.48;;
75358;SDS011;64046;51.978;5.934;2024-03-07T12:38:09;18.88;;;12.60;;
75358;SDS011;64046;51.978;5.934;2024-03-07T12:40:41;22.05;;;13.35;;
75358;SDS011;64046;51.978;5.934;2024-03-07T12:43:15;23.17;;;13.95;;
75358;SDS011;64046;51.978;5.934;2024-03-07T12:45:50;20.20;;;12.00;;
75358;SDS011;64046;51.978;5.934;2024-03-07T12:48:20;19.20;;;12.18;;
75358;SDS011;64046;51.978;5.934;2024-03-07T12:50:52;19.17;;;13.52;;
75358;SDS011;64046;51.978;5.934;2024-03-07T12:53:22;21.60;;;14.07;;
75358;SDS011;64046;51.978;5.934;2024-03-07T12:55:52;22.35;;;14.55;;
75358;SDS011;64046;51.978;5.934;2024-03-07T12:58:22;20.20;;;12.75;;
75358;SDS011;64046;51.978;5.934;2024-03-07T13:00:51;19.15;;;12.50;;
75358;SDS011;64046;51.978;5.934;2024-03-07T13:03:21;20.98;;;13.50;;
75358;SDS011;64046;51.978;5.934;2024-03-07T13:05:57;19.17;;;12.57;;
75358;SDS011;64046;51.978;5.934;2024-03-07T13:08:27;29.42;;;14.00;;
75358;SDS011;64046;51.978;5.934;2024-03-07T13:10:56;23.08;;;14.57;;
75358;SDS011;64046;51.978;5.934;2024-03-07T13:13:26;20.83;;;13.65;;
75358;SDS011;64046;51.978;5.934;2024-03-07T13:15:56;24.83;;;16.13;;
75358;SDS011;64046;51.978;5.934;2024-03-07T13:18:25;24.75;;;15.02;;
75358;SDS011;64046;51.978;5.934;2024-03-07T13:21:02;18.45;;;12.27;;
75358;SDS011;64046;51.978;5.934;2024-03-07T13:23:33;19.60;;;12.80;;
75358;SDS011;64046;51.978;5.934;2024-03-07T13:26:07;21.88;;;13.63;;
75358;SDS011;64046;51.978;5.934;2024-03-07T13:28:42;21.92;;;12.95;;
75358;SDS011;64046;51.978;5.934;2024-03-07T13:31:13;19.90;;;13.30;;
75358;SDS011;64046;51.978;5.934;2024-03-07T13:33:43;27.10;;;15.52;;
75358;SDS011;64046;51.978;5.934;2024-03-07T13:36:19;23.00;;;13.50;;
75358;SDS011;64046;51.978;5.934;2024-03-07T13:38:51;20.20;;;12.50;;
75358;SDS011;64046;51.978;5.934;2024-03-07T13:41:24;21.20;;;13.85;;
75358;SDS011;64046;51.978;5.934;2024-03-07T13:43:54;19.25;;;12.93;;
75358;SDS011;64046;51.978;5.934;2024-03-07T13:46:25;22.33;;;13.57;;
75358;SDS011;64046;51.978;5.934;2024-03-07T13:48:55;24.08;;;13.00;;
75358;SDS011;64046;51.978;5.934;2024-03-07T13:51:35;17.30;;;11.15;;
75358;SDS011;64046;51.978;5.934;2024-03-07T13:54:16;18.75;;;12.50;;
75358;SDS011;64046;51.978;5.934;2024-03-07T13:57:01;25.88;;;14.43;;
75358;SDS011;64046;51.978;5.934;2024-03-07T14:00:05;18.52;;;11.98;;
75358;SDS011;64046;51.978;5.934;2024-03-07T14:02:57;19.75;;;13.43;;
75358;SDS011;64046;51.978;5.934;2024-03-07T14:12:04;19.40;;;11.77;;
75358;SDS011;64046;51.978;5.934;2024-03-07T14:18:19;17.98;;;11.63;;
75358;SDS011;64046;51.978;5.934;2024-03-07T14:21:23;18.42;;;10.93;;
75358;SDS011;64046;51.978;5.934;2024-03-07T14:24:25;17.35;;;11.43;;
75358;SDS011;64046;51.978;5.934;2024-03-07T14:27:24;19.40;;;12.48;;
75358;SDS011;64046;51.978;5.934;2024-03-07T14:33:06;17.55;;;11.70;;
75358;SDS011;64046;51.978;5.934;2024-03-07T14:35:39;19.58;;;12.25;;
75358;SDS011;64046;51.978;5.934;2024-03-07T14:38:34;24.85;;;12.55;;
75358;SDS011;64046;51.978;5.934;2024-03-07T14:41:17;22.10;;;11.73;;
75358;SDS011;64046;51.978;5.934;2024-03-07T14:43:48;17.90;;;11.38;;
75358;SDS011;64046;51.978;5.934;2024-03-07T14:46:18;15.93;;;10.85;;
75358;SDS011;64046;51.978;5.934;2024-03-07T14:48:48;16.10;;;10.88;;
75358;SDS011;64046;51.978;5.934;2024-03-07T14:51:17;18.60;;;11.75;;
75358;SDS011;64046;51.978;5.934;2024-03-07T14:53:46;20.52;;;11.85;;
75358;SDS011;64046;51.978;5.934;2024-03-07T14:56:18;19.15;;;12.60;;
75358;SDS011;64046;51.978;5.934;2024-03-07T14:58:48;17.70;;;11.80;;
75358;SDS011;64046;51.978;5.934;2024-03-07T15:01:17;16.90;;;11.52;;
75358;SDS011;64046;51.978;5.934;2024-03-07T15:03:47;18.02;;;12.75;;